createdAt,value
2016-10-25T00:00:59.454Z,1018.21
2016-10-25T00:02:00.118Z,1018.21
2016-10-25T00:03:00.771Z,1018.18
2016-10-25T00:04:01.428Z,1018.25
2016-10-25T00:05:02.082Z,1018.21
2016-10-25T00:06:02.757Z,1018.22
2016-10-25T00:07:03.429Z,1018.24
2016-10-25T00:08:04.134Z,1018.17
2016-10-25T00:09:04.814Z,1018.23
2016-10-25T00:10:05.484Z,1018.16
2016-10-25T00:11:06.140Z,1018.12
2016-10-25T00:12:06.807Z,1018.08
2016-10-25T00:13:07.470Z,1018.08
2016-10-25T00:14:08.133Z,1018.08
2016-10-25T00:15:08.804Z,1018.07
2016-10-25T00:16:09.469Z,1018.12
2016-10-25T00:17:10.120Z,1018.13
2016-10-25T00:18:10.777Z,1018.12
2016-10-25T00:19:11.434Z,1018.14
2016-10-25T00:20:12.104Z,1018.12
2016-10-25T00:21:12.768Z,1018.14
2016-10-25T00:22:13.421Z,1018.12
2016-10-25T00:23:14.079Z,1018.1
2016-10-25T00:24:14.747Z,1018.11
2016-10-25T00:25:15.471Z,1018.12
2016-10-25T00:26:16.134Z,1018.12
2016-10-25T00:27:16.801Z,1018.09
2016-10-25T00:28:17.453Z,1018.07
2016-10-25T00:29:18.107Z,1018.08
2016-10-25T00:30:18.775Z,1018.05
2016-10-25T00:31:19.433Z,1018.08
2016-10-25T00:32:20.092Z,1018.1
2016-10-25T00:33:20.746Z,1018.08
2016-10-25T00:34:21.411Z,1018.08
2016-10-25T00:35:22.076Z,1018.03
2016-10-25T00:36:22.738Z,1018.06
2016-10-25T00:37:23.416Z,1018.04
2016-10-25T00:38:24.070Z,1018.03
2016-10-25T00:39:24.724Z,1018.02
2016-10-25T00:40:25.399Z,1018.01
2016-10-25T00:41:26.075Z,1018
2016-10-25T00:42:26.740Z,1018.01
2016-10-25T00:43:27.393Z,1018.05
2016-10-25T00:44:28.070Z,1018.02
2016-10-25T00:45:28.721Z,1018.09
2016-10-25T00:46:29.384Z,1018.08
2016-10-25T00:47:30.043Z,1018.12
2016-10-25T00:48:30.706Z,1018.16
2016-10-25T00:49:31.383Z,1018.21
2016-10-25T00:50:32.040Z,1018.24
2016-10-25T00:51:32.718Z,1018.26
2016-10-25T00:52:33.379Z,1018.29
2016-10-25T00:53:34.041Z,1018.24
2016-10-25T00:54:34.707Z,1018.27
2016-10-25T00:55:35.378Z,1018.26
2016-10-25T00:56:36.050Z,1018.25
2016-10-25T00:57:36.719Z,1018.23
2016-10-25T00:58:37.386Z,1018.26
2016-10-25T00:59:38.053Z,1018.28
2016-10-25T01:00:38.684Z,1018.3
2016-10-25T01:01:39.363Z,1018.27
2016-10-25T01:02:40.043Z,1018.28
2016-10-25T01:03:40.703Z,1018.25
2016-10-25T01:04:41.385Z,1018.21
2016-10-25T01:05:42.053Z,1018.21
2016-10-25T01:06:42.731Z,1018.13
2016-10-25T01:07:43.389Z,1018.14
2016-10-25T01:08:44.053Z,1018.11
2016-10-25T01:09:44.731Z,1018.09
2016-10-25T01:10:45.390Z,1018.1
2016-10-25T01:11:46.042Z,1018.16
2016-10-25T01:12:46.699Z,1018.22
2016-10-25T01:13:47.361Z,1018.19
2016-10-25T01:14:48.018Z,1018.2
2016-10-25T01:15:48.681Z,1018.25
2016-10-25T01:16:49.353Z,1018.25
2016-10-25T01:17:50.013Z,1018.2
2016-10-25T01:18:50.680Z,1018.27
2016-10-25T01:19:51.327Z,1018.22
2016-10-25T01:20:51.999Z,1018.29
2016-10-25T01:21:52.658Z,1018.26
2016-10-25T01:22:53.313Z,1018.25
2016-10-25T01:23:53.971Z,1018.26
2016-10-25T01:24:54.633Z,1018.25
2016-10-25T01:25:55.297Z,1018.22
2016-10-25T01:26:55.962Z,1018.25
2016-10-25T01:27:56.628Z,1018.25
2016-10-25T01:28:57.286Z,1018.26
2016-10-25T01:29:57.948Z,1018.23
2016-10-25T01:30:58.607Z,1018.26
2016-10-25T01:31:59.258Z,1018.24
2016-10-25T01:32:59.925Z,1018.26
2016-10-25T01:34:00.601Z,1018.22
2016-10-25T01:35:01.266Z,1018.23
2016-10-25T01:36:01.925Z,1018.22
2016-10-25T01:37:02.583Z,1018.25
2016-10-25T01:38:03.246Z,1018.26
2016-10-25T01:39:03.902Z,1018.24
2016-10-25T01:40:04.584Z,1018.28
2016-10-25T01:41:11.927Z,1018.23
2016-10-25T01:42:12.598Z,1018.17
2016-10-25T01:43:13.259Z,1018.23
2016-10-25T01:44:13.920Z,1018.22
2016-10-25T01:45:14.574Z,1018.22
2016-10-25T01:46:15.255Z,1018.22
2016-10-25T01:47:15.927Z,1018.24
2016-10-25T01:48:16.590Z,1018.23
2016-10-25T01:49:17.243Z,1018.25
2016-10-25T01:50:17.902Z,1018.23
2016-10-25T01:51:18.572Z,1018.23
2016-10-25T01:52:19.236Z,1018.23
2016-10-25T01:53:19.894Z,1018.21
2016-10-25T01:54:20.546Z,1018.25
2016-10-25T01:55:21.205Z,1018.21
2016-10-25T01:56:21.873Z,1018.15
2016-10-25T01:57:22.539Z,1018.19
2016-10-25T01:58:23.194Z,1018.2
2016-10-25T01:59:23.855Z,1018.23
2016-10-25T02:00:24.513Z,1018.2
2016-10-25T02:01:25.159Z,1018.2
2016-10-25T02:02:25.810Z,1018.19
2016-10-25T02:03:26.468Z,1018.19
2016-10-25T02:04:27.126Z,1018.23
2016-10-25T02:05:27.787Z,1018.22
2016-10-25T02:06:28.449Z,1018.21
2016-10-25T02:07:29.099Z,1018.17
2016-10-25T02:08:29.816Z,1018.23
2016-10-25T02:09:30.478Z,1018.27
2016-10-25T02:10:31.140Z,1018.29
2016-10-25T02:11:31.807Z,1018.33
2016-10-25T02:12:32.462Z,1018.35
2016-10-25T02:13:33.132Z,1018.32
2016-10-25T02:14:33.826Z,1018.37
2016-10-25T02:15:34.488Z,1018.37
2016-10-25T02:16:35.175Z,1018.37
2016-10-25T02:17:35.819Z,1018.45
2016-10-25T02:18:36.470Z,1018.42
2016-10-25T02:19:37.120Z,1018.38
2016-10-25T02:20:37.784Z,1018.44
2016-10-25T02:21:38.442Z,1018.4
2016-10-25T02:22:39.102Z,1018.44
2016-10-25T02:23:39.767Z,1018.47
2016-10-25T02:24:40.429Z,1018.45
2016-10-25T02:25:41.143Z,1018.42
2016-10-25T02:26:41.803Z,1018.41
2016-10-25T02:27:42.484Z,1018.44
2016-10-25T02:28:43.141Z,1018.43
2016-10-25T02:29:43.792Z,1018.41
2016-10-25T02:30:44.454Z,1018.45
2016-10-25T02:31:45.116Z,1018.43
2016-10-25T02:32:45.773Z,1018.46
2016-10-25T02:33:46.444Z,1018.48
2016-10-25T02:34:47.092Z,1018.52
2016-10-25T02:35:47.765Z,1018.47
2016-10-25T02:36:48.436Z,1018.5
2016-10-25T02:37:49.201Z,1018.48
2016-10-25T02:38:49.849Z,1018.47
2016-10-25T02:39:50.512Z,1018.4
2016-10-25T02:40:51.190Z,1018.38
2016-10-25T02:41:51.856Z,1018.36
2016-10-25T02:42:52.535Z,1018.4
2016-10-25T02:43:53.199Z,1018.39
2016-10-25T02:44:53.870Z,1018.42
2016-10-25T02:45:54.547Z,1018.43
2016-10-25T02:46:55.217Z,1018.47
2016-10-25T02:47:55.888Z,1018.45
2016-10-25T02:48:56.565Z,1018.42
2016-10-25T02:49:57.233Z,1018.4
2016-10-25T02:50:57.908Z,1018.4
2016-10-25T02:51:58.588Z,1018.44
2016-10-25T02:52:59.257Z,1018.42
2016-10-25T02:53:59.906Z,1018.44
2016-10-25T02:55:00.565Z,1018.44
2016-10-25T02:56:01.224Z,1018.44
2016-10-25T02:57:01.886Z,1018.42
2016-10-25T02:58:02.565Z,1018.49
2016-10-25T02:59:03.237Z,1018.42
2016-10-25T03:00:03.907Z,1018.45
2016-10-25T03:01:04.586Z,1018.45
2016-10-25T03:02:05.249Z,1018.46
2016-10-25T03:03:05.910Z,1018.46
2016-10-25T03:04:06.594Z,1018.44
2016-10-25T03:05:07.261Z,1018.43
2016-10-25T03:06:07.951Z,1018.42
2016-10-25T03:07:08.629Z,1018.44
2016-10-25T03:08:09.292Z,1018.42
2016-10-25T03:09:09.948Z,1018.42
2016-10-25T03:10:10.607Z,1018.44
2016-10-25T03:11:11.277Z,1018.42
2016-10-25T03:12:11.957Z,1018.47
2016-10-25T03:13:12.609Z,1018.47
2016-10-25T03:14:13.266Z,1018.55
2016-10-25T03:15:13.960Z,1018.54
2016-10-25T03:16:14.653Z,1018.55
2016-10-25T03:17:15.305Z,1018.6
2016-10-25T03:18:15.966Z,1018.59
2016-10-25T03:19:16.624Z,1018.57
2016-10-25T03:20:17.325Z,1018.55
2016-10-25T03:21:18.007Z,1018.58
2016-10-25T03:22:18.684Z,1018.58
2016-10-25T03:23:19.336Z,1018.55
2016-10-25T03:24:19.994Z,1018.62
2016-10-25T03:25:20.648Z,1018.65
2016-10-25T03:26:21.314Z,1018.69
2016-10-25T03:27:21.972Z,1018.72
2016-10-25T03:28:22.633Z,1018.74
2016-10-25T03:29:23.289Z,1018.75
2016-10-25T03:30:23.949Z,1018.79
2016-10-25T03:31:24.602Z,1018.78
2016-10-25T03:32:25.255Z,1018.79
2016-10-25T03:33:25.917Z,1018.87
2016-10-25T03:34:26.593Z,1018.88
2016-10-25T03:35:27.248Z,1018.89
2016-10-25T03:36:27.909Z,1018.91
2016-10-25T03:37:28.590Z,1018.93
2016-10-25T03:38:29.276Z,1018.93
2016-10-25T03:39:29.939Z,1018.95
2016-10-25T03:40:30.603Z,1018.99
2016-10-25T03:41:31.257Z,1019
2016-10-25T03:42:31.906Z,1019.04
2016-10-25T03:43:32.572Z,1019.05
2016-10-25T03:44:33.222Z,1019.06
2016-10-25T03:45:33.881Z,1019.08
2016-10-25T03:46:34.540Z,1019.07
2016-10-25T03:47:35.209Z,1019.05
2016-10-25T03:48:35.885Z,1019.03
2016-10-25T03:49:36.542Z,1019.04
2016-10-25T03:50:37.225Z,1019.06
2016-10-25T03:51:37.944Z,1019.05
2016-10-25T03:52:38.618Z,1019.06
2016-10-25T03:53:39.332Z,1019.05
2016-10-25T03:54:39.979Z,1019.05
2016-10-25T03:55:40.648Z,1019.1
2016-10-25T03:56:41.376Z,1019.06
2016-10-25T03:57:42.050Z,1019.07
2016-10-25T03:58:42.730Z,1019.07
2016-10-25T03:59:43.376Z,1019.06
2016-10-25T04:00:44.067Z,1019.11
2016-10-25T04:01:44.734Z,1019.1
2016-10-25T04:02:45.418Z,1019.1
2016-10-25T04:03:46.081Z,1019.11
2016-10-25T04:04:46.753Z,1019.14
2016-10-25T04:05:47.412Z,1019.14
2016-10-25T04:06:48.093Z,1019.13
2016-10-25T04:07:48.760Z,1019.08
2016-10-25T04:08:49.442Z,1019.1
2016-10-25T04:09:50.097Z,1019.08
2016-10-25T04:10:50.752Z,1019.1
2016-10-25T04:11:51.408Z,1019.1
2016-10-25T04:12:52.087Z,1019.11
2016-10-25T04:13:52.753Z,1019.14
2016-10-25T04:14:53.416Z,1019.11
2016-10-25T04:15:54.080Z,1019.12
2016-10-25T04:16:54.755Z,1019.13
2016-10-25T04:17:55.432Z,1019.11
2016-10-25T04:18:56.105Z,1019.16
2016-10-25T04:19:56.789Z,1019.17
2016-10-25T04:20:57.452Z,1019.14
2016-10-25T04:21:58.490Z,1019.18
2016-10-25T04:22:59.167Z,1019.21
2016-10-25T04:23:59.835Z,1019.2
2016-10-25T04:25:00.544Z,1019.19
2016-10-25T04:26:01.281Z,1019.22
2016-10-25T04:27:01.947Z,1019.25
2016-10-25T04:28:02.616Z,1019.17
2016-10-25T04:29:03.343Z,1019.24
2016-10-25T04:30:04.028Z,1019.18
2016-10-25T04:31:04.665Z,1019.21
2016-10-25T04:32:05.357Z,1019.17
2016-10-25T04:33:06.023Z,1019.17
2016-10-25T04:34:06.692Z,1019.21
2016-10-25T04:35:07.356Z,1019.21
2016-10-25T04:36:08.047Z,1019.27
2016-10-25T04:37:08.746Z,1019.29
2016-10-25T04:38:09.408Z,1019.31
2016-10-25T04:39:10.059Z,1019.35
2016-10-25T04:40:10.732Z,1019.4
2016-10-25T04:41:11.408Z,1019.38
2016-10-25T04:42:12.075Z,1019.4
2016-10-25T04:43:12.724Z,1019.4
2016-10-25T04:44:13.396Z,1019.38
2016-10-25T04:45:14.062Z,1019.4
2016-10-25T04:46:14.721Z,1019.37
2016-10-25T04:47:15.386Z,1019.39
2016-10-25T04:48:16.049Z,1019.36
2016-10-25T04:49:16.744Z,1019.39
2016-10-25T04:50:17.403Z,1019.4
2016-10-25T04:51:18.073Z,1019.38
2016-10-25T04:52:18.740Z,1019.4
2016-10-25T04:53:19.409Z,1019.37
2016-10-25T04:54:20.086Z,1019.41
2016-10-25T04:55:20.755Z,1019.35
2016-10-25T04:56:21.412Z,1019.33
2016-10-25T04:57:22.096Z,1019.34
2016-10-25T04:58:22.748Z,1019.33
2016-10-25T04:59:23.412Z,1019.3
2016-10-25T05:00:24.065Z,1019.28
2016-10-25T05:01:24.739Z,1019.29
2016-10-25T05:02:25.405Z,1019.26
2016-10-25T05:03:26.068Z,1019.29
2016-10-25T05:04:26.750Z,1019.26
2016-10-25T05:05:27.431Z,1019.28
2016-10-25T05:06:28.095Z,1019.26
2016-10-25T05:07:28.757Z,1019.28
2016-10-25T05:08:29.427Z,1019.26
2016-10-25T05:09:30.128Z,1019.24
2016-10-25T05:10:30.793Z,1019.23
2016-10-25T05:11:31.495Z,1019.19
2016-10-25T05:12:32.187Z,1019.2
2016-10-25T05:13:32.852Z,1019.2
2016-10-25T05:14:33.524Z,1019.18
2016-10-25T05:15:34.180Z,1019.21
2016-10-25T05:16:34.872Z,1019.18
2016-10-25T05:17:35.538Z,1019.18
2016-10-25T05:18:36.202Z,1019.14
2016-10-25T05:19:36.906Z,1019.2
2016-10-25T05:20:37.561Z,1019.15
2016-10-25T05:21:38.228Z,1019.15
2016-10-25T05:22:38.915Z,1019.17
2016-10-25T05:23:39.578Z,1019.24
2016-10-25T05:24:40.253Z,1019.22
2016-10-25T05:25:40.918Z,1019.29
2016-10-25T05:26:41.583Z,1019.26
2016-10-25T05:27:42.265Z,1019.31
2016-10-25T05:28:42.931Z,1019.34
2016-10-25T05:29:43.610Z,1019.3
2016-10-25T05:30:44.285Z,1019.44
2016-10-25T05:31:44.949Z,1019.4
2016-10-25T05:32:45.608Z,1019.47
2016-10-25T05:33:46.311Z,1019.48
2016-10-25T05:34:46.993Z,1019.5
2016-10-25T05:35:47.666Z,1019.54
2016-10-25T05:36:48.329Z,1019.57
2016-10-25T05:37:48.984Z,1019.57
2016-10-25T05:38:49.643Z,1019.58
2016-10-25T05:39:50.327Z,1019.65
2016-10-25T05:40:51.001Z,1019.65
2016-10-25T05:41:51.665Z,1019.65
2016-10-25T05:42:52.345Z,1019.71
2016-10-25T05:43:53.008Z,1019.69
2016-10-25T05:44:53.675Z,1019.69
2016-10-25T05:45:54.339Z,1019.72
2016-10-25T05:46:54.994Z,1019.77
2016-10-25T05:47:55.669Z,1019.73
2016-10-25T05:48:56.324Z,1019.74
2016-10-25T05:49:56.983Z,1019.76
2016-10-25T05:50:57.670Z,1019.79
2016-10-25T05:51:58.331Z,1019.82
2016-10-25T05:52:59.006Z,1019.87
2016-10-25T05:53:59.665Z,1019.8
2016-10-25T05:55:00.338Z,1019.8
2016-10-25T05:56:01.012Z,1019.78
2016-10-25T05:57:01.682Z,1019.76
2016-10-25T05:58:02.379Z,1019.8
2016-10-25T05:59:03.046Z,1019.8
2016-10-25T06:00:03.717Z,1019.81
2016-10-25T06:01:04.376Z,1019.78
2016-10-25T06:02:05.052Z,1019.82
2016-10-25T06:03:05.725Z,1019.77
2016-10-25T06:04:06.403Z,1019.74
2016-10-25T06:05:07.072Z,1019.75
2016-10-25T06:06:07.741Z,1019.73
2016-10-25T06:07:08.429Z,1019.73
2016-10-25T06:08:09.099Z,1019.76
2016-10-25T06:09:09.758Z,1019.8
2016-10-25T06:10:10.427Z,1019.84
2016-10-25T06:11:11.085Z,1019.87
2016-10-25T06:12:11.752Z,1019.92
2016-10-25T06:13:12.428Z,1019.96
2016-10-25T06:14:13.104Z,1019.96
2016-10-25T06:15:13.791Z,1020
2016-10-25T06:16:14.461Z,1020.05
2016-10-25T06:17:15.127Z,1020.08
2016-10-25T06:18:15.823Z,1020.06
2016-10-25T06:19:16.503Z,1020.1
2016-10-25T06:20:17.160Z,1020.06
2016-10-25T06:21:17.833Z,1020.07
2016-10-25T06:22:18.498Z,1020.05
2016-10-25T06:23:19.177Z,1020.07
2016-10-25T06:24:19.830Z,1020.12
2016-10-25T06:25:20.507Z,1020.11
2016-10-25T06:26:21.184Z,1020.11
2016-10-25T06:27:21.852Z,1020.17
2016-10-25T06:28:22.525Z,1020.17
2016-10-25T06:29:23.197Z,1020.15
2016-10-25T06:30:23.869Z,1020.15
2016-10-25T06:31:24.541Z,1020.16
2016-10-25T06:32:25.220Z,1020.16
2016-10-25T06:33:25.901Z,1020.12
2016-10-25T06:34:26.559Z,1020.2
2016-10-25T06:35:27.229Z,1020.24
2016-10-25T06:36:27.905Z,1020.29
2016-10-25T06:37:28.577Z,1020.35
2016-10-25T06:38:29.235Z,1020.41
2016-10-25T06:39:29.915Z,1020.43
2016-10-25T06:40:30.581Z,1020.43
2016-10-25T06:41:31.266Z,1020.45
2016-10-25T06:42:31.945Z,1020.44
2016-10-25T06:43:32.605Z,1020.42
2016-10-25T06:44:33.278Z,1020.4
2016-10-25T06:45:33.952Z,1020.41
2016-10-25T06:46:34.622Z,1020.43
2016-10-25T06:47:35.309Z,1020.48
2016-10-25T06:48:35.991Z,1020.48
2016-10-25T06:49:36.654Z,1020.48
2016-10-25T06:50:37.322Z,1020.48
2016-10-25T06:51:37.995Z,1020.48
2016-10-25T06:52:38.666Z,1020.45
2016-10-25T06:53:39.335Z,1020.48
2016-10-25T06:54:40.010Z,1020.5
2016-10-25T06:55:40.686Z,1020.51
2016-10-25T06:56:41.361Z,1020.56
2016-10-25T06:57:42.031Z,1020.58
2016-10-25T06:58:42.716Z,1020.62
2016-10-25T06:59:43.378Z,1020.59
2016-10-25T07:00:44.053Z,1020.64
2016-10-25T07:01:44.731Z,1020.67
2016-10-25T07:02:45.428Z,1020.65
2016-10-25T07:03:46.095Z,1020.75
2016-10-25T07:04:46.752Z,1020.77
2016-10-25T07:05:47.420Z,1020.73
2016-10-25T07:06:48.089Z,1020.79
2016-10-25T07:07:48.819Z,1020.83
2016-10-25T07:08:49.526Z,1020.79
2016-10-25T07:09:50.213Z,1020.82
2016-10-25T07:10:50.917Z,1020.84
2016-10-25T07:11:51.607Z,1020.88
2016-10-25T07:12:52.308Z,1020.89
2016-10-25T07:13:52.969Z,1020.89
2016-10-25T07:14:53.641Z,1020.9
2016-10-25T07:15:54.353Z,1020.92
2016-10-25T07:16:55.097Z,1020.92
2016-10-25T07:17:55.833Z,1020.92
2016-10-25T07:18:56.508Z,1020.96
2016-10-25T07:19:57.184Z,1020.94
2016-10-25T07:20:57.875Z,1020.92
2016-10-25T07:21:58.537Z,1020.92
2016-10-25T07:22:59.203Z,1020.96
2016-10-25T07:23:59.881Z,1021.02
2016-10-25T07:25:00.552Z,1021.08
2016-10-25T07:26:01.251Z,1021.11
2016-10-25T07:27:01.906Z,1021.17
2016-10-25T07:28:02.565Z,1021.27
2016-10-25T07:29:03.256Z,1021.29
2016-10-25T07:30:03.917Z,1021.27
2016-10-25T07:31:04.584Z,1021.34
2016-10-25T07:32:05.269Z,1021.34
2016-10-25T07:33:05.965Z,1021.38
2016-10-25T07:34:06.611Z,1021.35
2016-10-25T07:35:07.281Z,1021.37
2016-10-25T07:36:07.959Z,1021.37
2016-10-25T07:37:08.630Z,1021.44
2016-10-25T07:38:09.303Z,1021.45
2016-10-25T07:39:09.970Z,1021.44
2016-10-25T07:40:10.660Z,1021.51
2016-10-25T07:41:11.320Z,1021.5
2016-10-25T07:42:11.992Z,1021.58
2016-10-25T07:43:12.661Z,1021.56
2016-10-25T07:44:13.333Z,1021.6
2016-10-25T07:45:14.030Z,1021.64
2016-10-25T07:46:14.697Z,1021.57
2016-10-25T07:47:15.361Z,1021.58
2016-10-25T07:48:16.019Z,1021.6
2016-10-25T07:49:16.685Z,1021.65
2016-10-25T07:50:17.363Z,1021.62
2016-10-25T07:51:18.039Z,1021.6
2016-10-25T07:52:18.716Z,1021.61
2016-10-25T07:53:19.394Z,1021.61
2016-10-25T07:54:20.059Z,1021.55
2016-10-25T07:55:20.733Z,1021.59
2016-10-25T07:56:21.397Z,1021.62
2016-10-25T07:57:22.089Z,1021.63
2016-10-25T07:58:22.742Z,1021.64
2016-10-25T07:59:23.401Z,1021.66
2016-10-25T08:00:24.077Z,1021.68
2016-10-25T08:01:24.733Z,1021.73
2016-10-25T08:02:25.403Z,1021.7
2016-10-25T08:03:26.085Z,1021.75
2016-10-25T08:04:26.740Z,1021.78
2016-10-25T08:05:27.400Z,1021.76
2016-10-25T08:06:28.067Z,1021.78
2016-10-25T08:07:28.731Z,1021.76
2016-10-25T08:08:29.399Z,1021.78
2016-10-25T08:09:30.058Z,1021.83
2016-10-25T08:10:30.754Z,1021.84
2016-10-25T08:11:31.428Z,1021.89
2016-10-25T08:12:32.099Z,1021.95
2016-10-25T08:13:32.762Z,1021.93
2016-10-25T08:14:33.437Z,1022.02
2016-10-25T08:15:34.104Z,1022.03
2016-10-25T08:16:34.767Z,1022
2016-10-25T08:17:35.436Z,1022.01
2016-10-25T08:18:36.102Z,1022.05
2016-10-25T08:19:36.765Z,1022.08
2016-10-25T08:20:37.439Z,1022.09
2016-10-25T08:21:38.130Z,1022.13
2016-10-25T08:22:38.808Z,1022.15
2016-10-25T08:23:39.472Z,1022.17
2016-10-25T08:24:40.152Z,1022.21
2016-10-25T08:25:40.831Z,1022.2
2016-10-25T08:26:41.508Z,1022.26
2016-10-25T08:27:42.174Z,1022.28
2016-10-25T08:28:42.845Z,1022.27
2016-10-25T08:29:43.510Z,1022.29
2016-10-25T08:30:44.224Z,1022.3
2016-10-25T08:31:44.902Z,1022.27
2016-10-25T08:32:45.587Z,1022.27
2016-10-25T08:33:46.278Z,1022.28
2016-10-25T08:34:46.954Z,1022.25
2016-10-25T08:35:48.777Z,1022.24
2016-10-25T08:36:49.288Z,1022.29
2016-10-25T08:37:49.985Z,1022.24
2016-10-25T08:38:50.659Z,1022.25
2016-10-25T08:39:51.334Z,1022.21
2016-10-25T08:40:52.914Z,1022.25
2016-10-25T08:41:53.599Z,1022.33
2016-10-25T08:42:54.287Z,1022.31
2016-10-25T08:43:54.995Z,1022.36
2016-10-25T08:44:56.055Z,1022.37
2016-10-25T08:45:58.679Z,1022.31
2016-10-25T08:46:59.598Z,1022.33
2016-10-25T08:48:00.348Z,1022.35
2016-10-25T08:49:01.037Z,1022.35
2016-10-25T08:50:02.445Z,1022.36
2016-10-25T08:51:03.080Z,1022.41
2016-10-25T08:52:03.775Z,1022.44
2016-10-25T08:53:04.450Z,1022.43
2016-10-25T08:54:05.130Z,1022.46
2016-10-25T08:55:05.835Z,1022.44
2016-10-25T08:56:06.503Z,1022.47
2016-10-25T08:57:07.195Z,1022.46
2016-10-25T08:58:07.880Z,1022.49
2016-10-25T08:59:08.548Z,1022.5
2016-10-25T09:00:09.216Z,1022.51
2016-10-25T09:01:09.888Z,1022.49
2016-10-25T09:02:10.589Z,1022.53
2016-10-25T09:03:11.276Z,1022.49
2016-10-25T09:04:11.963Z,1022.49
2016-10-25T09:05:12.630Z,1022.52
2016-10-25T09:06:13.296Z,1022.48
2016-10-25T09:07:13.971Z,1022.48
2016-10-25T09:08:14.649Z,1022.51
2016-10-25T09:09:15.321Z,1022.51
2016-10-25T09:10:15.989Z,1022.54
2016-10-25T09:11:16.770Z,1022.59
2016-10-25T09:12:17.445Z,1022.58
2016-10-25T09:13:18.116Z,1022.54
2016-10-25T09:14:18.786Z,1022.57
2016-10-25T09:15:19.474Z,1022.59
2016-10-25T09:16:20.133Z,1022.53
2016-10-25T09:17:20.816Z,1022.53
2016-10-25T09:18:21.492Z,1022.52
2016-10-25T09:19:22.167Z,1022.58
2016-10-25T09:20:22.839Z,1022.59
2016-10-25T09:21:23.542Z,1022.62
2016-10-25T09:22:24.217Z,1022.62
2016-10-25T09:23:24.894Z,1022.59
2016-10-25T09:24:25.567Z,1022.64
2016-10-25T09:25:26.247Z,1022.65
2016-10-25T09:26:26.936Z,1022.66
2016-10-25T09:27:27.620Z,1022.69
2016-10-25T09:28:28.293Z,1022.67
2016-10-25T09:29:28.956Z,1022.67
2016-10-25T09:30:29.639Z,1022.64
2016-10-25T09:31:30.318Z,1022.66
2016-10-25T09:32:31.007Z,1022.66
2016-10-25T09:33:31.666Z,1022.65
2016-10-25T09:34:32.347Z,1022.62
2016-10-25T09:35:33.014Z,1022.64
2016-10-25T09:36:33.695Z,1022.6
2016-10-25T09:37:34.358Z,1022.56
2016-10-25T09:38:35.029Z,1022.54
2016-10-25T09:39:35.699Z,1022.58
2016-10-25T09:40:36.373Z,1022.53
2016-10-25T09:41:37.062Z,1022.56
2016-10-25T09:42:37.716Z,1022.6
2016-10-25T09:43:38.388Z,1022.6
2016-10-25T09:44:39.061Z,1022.6
2016-10-25T09:45:39.778Z,1022.59
2016-10-25T09:46:40.401Z,1022.6
2016-10-25T09:47:41.072Z,1022.58
2016-10-25T09:48:41.755Z,1022.61
2016-10-25T09:49:42.433Z,1022.62
2016-10-25T09:50:43.127Z,1022.57
2016-10-25T09:51:43.795Z,1022.59
2016-10-25T09:52:44.489Z,1022.58
2016-10-25T09:53:45.164Z,1022.61
2016-10-25T09:54:45.836Z,1022.62
2016-10-25T09:55:46.528Z,1022.63
2016-10-25T09:56:47.215Z,1022.67
2016-10-25T09:57:47.884Z,1022.68
2016-10-25T09:58:48.574Z,1022.61
2016-10-25T09:59:49.248Z,1022.63
2016-10-25T10:00:49.928Z,1022.6
2016-10-25T10:01:50.619Z,1022.58
2016-10-25T10:02:51.296Z,1022.58
2016-10-25T10:03:51.987Z,1022.64
2016-10-25T10:04:52.679Z,1022.63
2016-10-25T10:05:53.351Z,1022.63
2016-10-25T10:06:54.011Z,1022.62
2016-10-25T10:07:54.694Z,1022.62
2016-10-25T10:08:55.360Z,1022.67
2016-10-25T10:09:56.037Z,1022.65
2016-10-25T10:10:56.707Z,1022.67
2016-10-25T10:11:57.379Z,1022.66
2016-10-25T10:12:58.050Z,1022.67
2016-10-25T10:13:58.718Z,1022.71
2016-10-25T10:14:59.405Z,1022.77
2016-10-25T10:16:00.085Z,1022.78
2016-10-25T10:17:00.763Z,1022.76
2016-10-25T10:18:01.430Z,1022.78
2016-10-25T10:19:02.135Z,1022.79
2016-10-25T10:20:02.798Z,1022.83
2016-10-25T10:21:03.464Z,1022.78
2016-10-25T10:22:04.137Z,1022.82
2016-10-25T10:23:04.815Z,1022.82
2016-10-25T10:24:05.483Z,1022.85
2016-10-25T10:25:06.154Z,1022.86
2016-10-25T10:26:06.835Z,1022.89
2016-10-25T10:27:07.503Z,1022.88
2016-10-25T10:28:08.174Z,1022.87
2016-10-25T10:29:08.843Z,1022.89
2016-10-25T10:30:09.518Z,1022.87
2016-10-25T10:31:10.185Z,1022.91
2016-10-25T10:32:10.897Z,1022.91
2016-10-25T10:33:11.572Z,1022.92
2016-10-25T10:34:12.249Z,1022.88
2016-10-25T10:35:12.930Z,1022.89
2016-10-25T10:36:13.591Z,1022.85
2016-10-25T10:37:14.287Z,1022.85
2016-10-25T10:38:14.989Z,1022.86
2016-10-25T10:39:15.657Z,1022.87
2016-10-25T10:40:16.348Z,1022.86
2016-10-25T10:41:17.025Z,1022.88
2016-10-25T10:42:17.686Z,1022.84
2016-10-25T10:43:18.360Z,1022.84
2016-10-25T10:44:19.039Z,1022.83
2016-10-25T10:45:19.752Z,1022.81
2016-10-25T10:46:20.433Z,1022.78
2016-10-25T10:47:21.103Z,1022.79
2016-10-25T10:48:21.767Z,1022.82
2016-10-25T10:49:22.485Z,1022.82
2016-10-25T10:50:23.212Z,1022.81
2016-10-25T10:51:23.895Z,1022.83
2016-10-25T10:52:24.566Z,1022.79
2016-10-25T10:53:25.287Z,1022.78
2016-10-25T10:54:25.965Z,1022.83
2016-10-25T10:55:26.631Z,1022.84
2016-10-25T10:56:27.308Z,1022.78
2016-10-25T10:57:27.974Z,1022.79
2016-10-25T10:58:28.683Z,1022.81
2016-10-25T10:59:29.343Z,1022.85
2016-10-25T11:00:30.021Z,1022.89
2016-10-25T11:01:30.715Z,1022.91
2016-10-25T11:02:31.391Z,1022.91
2016-10-25T11:03:32.062Z,1022.91
2016-10-25T11:04:33.757Z,1022.84
2016-10-25T11:05:34.667Z,1022.88
2016-10-25T11:06:35.376Z,1022.84
2016-10-25T11:07:36.050Z,1022.84
2016-10-25T11:08:36.752Z,1022.87
2016-10-25T11:09:37.420Z,1022.83
2016-10-25T11:10:38.118Z,1022.84
2016-10-25T11:11:38.805Z,1022.85
2016-10-25T11:12:39.475Z,1022.87
2016-10-25T11:13:40.169Z,1022.78
2016-10-25T11:14:40.910Z,1022.79
2016-10-25T11:15:41.569Z,1022.79
2016-10-25T11:16:42.245Z,1022.77
2016-10-25T11:17:42.957Z,1022.76
2016-10-25T11:18:43.642Z,1022.81
2016-10-25T11:19:44.336Z,1022.75
2016-10-25T11:20:45.014Z,1022.76
2016-10-25T11:21:45.697Z,1022.73
2016-10-25T11:22:46.391Z,1022.78
2016-10-25T11:23:47.054Z,1022.81
2016-10-25T11:24:47.749Z,1022.76
2016-10-25T11:25:48.430Z,1022.83
2016-10-25T11:26:49.098Z,1022.81
2016-10-25T11:27:49.791Z,1022.88
2016-10-25T11:28:50.513Z,1022.88
2016-10-25T11:29:51.200Z,1022.94
2016-10-25T11:30:51.874Z,1022.95
2016-10-25T11:31:52.537Z,1022.98
2016-10-25T11:32:53.220Z,1022.99
2016-10-25T11:33:53.905Z,1022.99
2016-10-25T11:34:54.584Z,1022.97
2016-10-25T11:35:55.261Z,1022.99
2016-10-25T11:36:55.957Z,1023.05
2016-10-25T11:37:56.621Z,1023.03
2016-10-25T11:38:57.312Z,1023.05
2016-10-25T11:39:58.011Z,1023.08
2016-10-25T11:40:58.692Z,1023.1
2016-10-25T11:41:59.378Z,1023.08
2016-10-25T11:43:00.063Z,1023.1
2016-10-25T11:44:00.740Z,1023.11
2016-10-25T11:45:01.420Z,1023.13
2016-10-25T11:46:02.165Z,1023.09
2016-10-25T11:47:02.863Z,1023.13
2016-10-25T11:48:03.574Z,1023.11
2016-10-25T11:49:04.260Z,1023.11
2016-10-25T11:50:04.926Z,1023.09
2016-10-25T11:51:05.601Z,1023.11
2016-10-25T11:52:06.289Z,1023.11
2016-10-25T11:53:06.957Z,1023.13
2016-10-25T11:54:07.653Z,1023.12
2016-10-25T11:55:08.352Z,1023.15
2016-10-25T11:56:09.063Z,1023.16
2016-10-25T11:57:09.790Z,1023.14
2016-10-25T11:58:10.501Z,1023.1
2016-10-25T11:59:11.162Z,1023.19
2016-10-25T12:00:11.895Z,1023.17
2016-10-25T12:01:12.561Z,1023.19
2016-10-25T12:02:13.233Z,1023.18
2016-10-25T12:03:13.905Z,1023.22
2016-10-25T12:04:14.594Z,1023.18
2016-10-25T12:05:15.277Z,1023.22
2016-10-25T12:06:15.976Z,1023.23
2016-10-25T12:07:16.664Z,1023.27
2016-10-25T12:08:17.350Z,1023.24
2016-10-25T12:09:18.028Z,1023.26
2016-10-25T12:10:18.733Z,1023.3
2016-10-25T12:11:19.475Z,1023.32
2016-10-25T12:12:20.140Z,1023.33
2016-10-25T12:13:20.829Z,1023.35
2016-10-25T12:14:21.540Z,1023.31
2016-10-25T12:15:22.235Z,1023.34
2016-10-25T12:16:22.928Z,1023.39
2016-10-25T12:17:23.623Z,1023.4